Time,TemperatureF,DewpointF,PressureIn,WindDirection,WindDirectionDegrees,WindSpeedMPH,WindSpeedGustMPH,Humidity,HourlyPrecipIn,Conditions,Clouds,dailyrainin,SolarRadiationWatts/m^2,SoftwareType,DateUTC
2013-02-28 00:01:00,20.0,17.0,-100.00,North,356,5.0,6.0,87,-99.99,,,-99.99,-0.100000,,2013-02-28 07:01:00,
2013-02-28 00:11:00,20.0,17.0,-100.00,NNE,13,5.0,6.0,87,-99.99,,,-99.99,-0.100000,,2013-02-28 07:11:00,
2013-02-28 00:21:00,20.0,17.0,-100.00,North,3,8.0,10.0,87,-99.99,,,-99.99,-0.100000,,2013-02-28 07:21:00,
2013-02-28 00:31:00,20.0,16.0,-100.00,North,3,7.0,8.0,86,-99.99,,,-99.99,-0.100000,,2013-02-28 07:31:00,
2013-02-28 00:41:00,20.0,16.0,-100.00,North,8,10.0,11.0,86,-99.99,,,-99.99,-0.100000,,2013-02-28 07:41:00,
2013-02-28 00:51:00,19.0,16.0,-100.00,NNW,345,8.0,10.0,85,-99.99,,,-99.99,-0.100000,,2013-02-28 07:51:00,
2013-02-28 01:01:00,19.0,16.0,-100.00,North,356,7.0,9.0,86,-99.99,,,-99.99,-0.100000,,2013-02-28 08:01:00,
2013-02-28 01:11:00,19.0,16.0,-100.00,North,1,8.0,10.0,86,-99.99,,,-99.99,-0.100000,,2013-02-28 08:11:00,
2013-02-28 01:21:00,19.0,15.0,-100.00,NNW,340,8.0,9.0,86,-99.99,,,-99.99,-0.100000,,2013-02-28 08:21:00,
2013-02-28 01:31:00,18.0,15.0,-100.00,NNW,343,9.0,10.0,86,-99.99,,,-99.99,-0.100000,,2013-02-28 08:31:00,
2013-02-28 01:41:00,18.0,15.0,-100.00,NNW,345,10.0,11.0,86,-99.99,,,-99.99,-0.100000,,2013-02-28 08:41:00,
2013-02-28 01:52:00,18.0,15.0,-100.00,NNW,343,11.0,12.0,86,-99.99,,,-99.99,-0.100000,,2013-02-28 08:52:00,
2013-02-28 02:02:00,18.0,15.0,-100.00,NNW,341,12.0,13.0,86,-99.99,,,-99.99,-0.100000,,2013-02-28 09:02:00,
2013-02-28 02:11:00,18.0,15.0,-100.00,North,350,11.0,13.0,86,-99.99,,,-99.99,-0.100000,,2013-02-28 09:11:00,
2013-02-28 02:21:00,18.0,15.0,-100.00,North,352,11.0,13.0,85,-99.99,,,-99.99,-0.100000,,2013-02-28 09:21:00,
2013-02-28 02:31:00,19.0,15.0,-100.00,North,2,12.0,13.0,84,-99.99,,,-99.99,0.000000,,2013-02-28 09:31:00,
2013-02-28 02:41:00,19.0,15.0,-100.00,North,5,11.0,13.0,83,-99.99,,,-99.99,0.000000,,2013-02-28 09:41:00,
2013-02-28 02:51:00,18.0,14.0,-100.00,North,11,11.0,12.0,83,-99.99,,,-99.99,-0.100000,,2013-02-28 09:51:00,
2013-02-28 03:01:00,18.0,14.0,-100.00,NNE,22,11.0,12.0,83,-99.99,,,-99.99,-0.100000,,2013-02-28 10:01:00,
2013-02-28 03:11:00,17.0,13.0,-100.00,NNE,24,9.0,10.0,83,-99.99,,,-99.99,-0.100000,,2013-02-28 10:11:00,
2013-02-28 03:21:00,16.0,12.0,-100.00,NNE,26,8.0,9.0,84,-99.99,,,-99.99,-0.100000,,2013-02-28 10:21:00,
2013-02-28 03:31:00,16.0,12.0,-100.00,NNE,30,6.0,8.0,86,-99.99,,,-99.99,-0.100000,,2013-02-28 10:31:00,
2013-02-28 03:41:00,16.0,12.0,-100.00,North,9,5.0,7.0,86,-99.99,,,-99.99,-0.100000,,2013-02-28 10:41:00,
2013-02-28 03:51:00,16.0,12.0,-100.00,North,11,6.0,7.0,85,-99.99,,,-99.99,-0.100000,,2013-02-28 10:51:00,
2013-02-28 04:01:00,16.0,13.0,-100.00,North,8,6.0,7.0,85,-99.99,,,-99.99,-0.100000,,2013-02-28 11:01:00,
2013-02-28 04:11:00,16.0,13.0,-100.00,North,1,6.0,6.0,85,-99.99,,,-99.99,-0.100000,,2013-02-28 11:11:00,
2013-02-28 04:21:00,17.0,13.0,-100.00,North,357,7.0,8.0,85,-99.99,,,-99.99,-0.100000,,2013-02-28 11:21:00,
2013-02-28 04:31:00,17.0,13.0,-100.00,NNW,344,7.0,8.0,84,-99.99,,,-99.99,-0.100000,,2013-02-28 11:31:00,
2013-02-28 04:41:00,17.0,13.0,-100.00,North,357,8.0,9.0,85,-99.99,,,-99.99,-0.100000,,2013-02-28 11:41:00,
2013-02-28 04:52:00,17.0,13.0,-100.00,North,4,8.0,9.0,85,-99.99,,,-99.99,-0.100000,,2013-02-28 11:52:00,
2013-02-28 05:01:00,17.0,13.0,-100.00,NNE,15,9.0,10.0,85,-99.99,,,-99.99,-0.100000,,2013-02-28 12:01:00,
2013-02-28 05:11:00,16.0,12.0,-100.00,NNE,12,8.0,11.0,85,-99.99,,,-99.99,-0.100000,,2013-02-28 12:11:00,
2013-02-28 05:21:00,16.0,12.0,-100.00,NNE,13,10.0,11.0,84,-99.99,,,-99.99,-0.100000,,2013-02-28 12:21:00,
2013-02-28 05:31:00,16.0,12.0,-100.00,NNE,12,10.0,12.0,84,-99.99,,,-99.99,0.000000,,2013-02-28 12:31:00,
2013-02-28 05:42:00,16.0,12.0,-100.00,NNE,12,10.0,11.0,84,-99.99,,,-99.99,-0.100000,,2013-02-28 12:42:00,
2013-02-28 05:52:00,16.0,12.0,-100.00,North,3,9.0,10.0,84,-99.99,,,-99.99,0.000000,,2013-02-28 12:52:00,
2013-02-28 06:01:00,17.0,13.0,-100.00,North,1,8.0,10.0,84,-99.99,,,-99.99,-0.100000,,2013-02-28 13:01:00,
2013-02-28 06:11:00,17.0,13.0,-100.00,North,8,7.0,9.0,84,-99.99,,,-99.99,-0.100000,,2013-02-28 13:11:00,
2013-02-28 06:21:00,17.0,13.0,-100.00,North,1,8.0,10.0,84,-99.99,,,-99.99,-0.100000,,2013-02-28 13:21:00,
2013-02-28 06:31:00,16.0,13.0,-100.00,North,7,8.0,10.0,85,-99.99,,,-99.99,-0.100000,,2013-02-28 13:31:00,
2013-02-28 06:41:00,17.0,13.0,-100.00,NNE,15,8.0,9.0,85,-99.99,,,-99.99,-0.100000,,2013-02-28 13:41:00,
2013-02-28 06:51:00,17.0,13.0,-100.00,NNE,29,6.0,8.0,84,-99.99,,,-99.99,-0.100000,,2013-02-28 13:51:00,
2013-02-28 07:01:00,17.0,13.0,-100.00,NNE,27,6.0,8.0,84,-99.99,,,-99.99,0.000000,,2013-02-28 14:01:00,
2013-02-28 07:11:00,17.0,13.0,-100.00,NNE,12,6.0,7.0,84,-99.99,,,-99.99,0.000000,,2013-02-28 14:11:00,
2013-02-28 07:21:00,17.0,13.0,-100.00,North,4,7.0,9.0,84,-99.99,,,-99.99,0.600000,,2013-02-28 14:21:00,
2013-02-28 07:31:00,18.0,14.0,-100.00,NNE,12,11.0,13.0,84,-99.99,,,-99.99,1.900000,,2013-02-28 14:31:00,
2013-02-28 07:41:00,18.0,14.0,-100.00,NNE,24,9.0,10.0,83,-99.99,,,-99.99,4.900000,,2013-02-28 14:41:00,
2013-02-28 07:52:00,18.0,14.0,-100.00,NNE,25,8.0,9.0,83,-99.99,,,-99.99,13.700000,,2013-02-28 14:52:00,
2013-02-28 08:01:00,19.0,14.0,-100.00,NNE,27,6.0,8.0,83,-99.99,,,-99.99,19.100000,,2013-02-28 15:01:00,
2013-02-28 08:11:00,19.0,15.0,-100.00,NNE,12,8.0,10.0,83,-99.99,,,-99.99,25.200001,,2013-02-28 15:11:00,
2013-02-28 08:21:00,20.0,15.0,-100.00,NNE,14,9.0,10.0,83,-99.99,,,-99.99,42.000000,,2013-02-28 15:21:00,
2013-02-28 08:31:00,20.0,16.0,-100.00,NNE,21,8.0,10.0,82,-99.99,,,-99.99,62.500000,,2013-02-28 15:31:00,
2013-02-28 08:41:00,20.0,16.0,-100.00,NNE,33,7.0,9.0,82,-99.99,,,-99.99,73.900002,,2013-02-28 15:41:00,
2013-02-28 08:51:00,21.0,16.0,-100.00,NNE,25,6.0,8.0,82,-99.99,,,-99.99,95.599998,,2013-02-28 15:51:00,
2013-02-28 09:01:00,21.0,16.0,-100.00,NNE,15,6.0,7.0,82,-99.99,,,-99.99,109.000000,,2013-02-28 16:01:00,
2013-02-28 09:11:00,21.0,17.0,-100.00,NNE,22,7.0,8.0,81,-99.99,,,-99.99,127.800003,,2013-02-28 16:11:00,
2013-02-28 09:21:00,22.0,17.0,-100.00,NNE,25,8.0,9.0,82,-99.99,,,-99.99,150.500000,,2013-02-28 16:21:00,
2013-02-28 09:31:00,22.0,17.0,-100.00,NNE,28,9.0,10.0,82,-99.99,,,-99.99,236.600006,,2013-02-28 16:31:00,
2013-02-28 09:41:00,23.0,18.0,-100.00,NNE,26,7.0,8.0,80,-99.99,,,-99.99,240.699997,,2013-02-28 16:41:00,
2013-02-28 09:52:00,23.0,18.0,-100.00,NNE,13,7.0,9.0,80,-99.99,,,-99.99,231.600006,,2013-02-28 16:52:00,
2013-02-28 10:01:00,24.0,18.0,-100.00,NNE,13,8.0,9.0,79,-99.99,,,-99.99,216.500000,,2013-02-28 17:01:00,
2013-02-28 10:11:00,24.0,18.0,-100.00,NNE,16,9.0,10.0,76,-99.99,,,-99.99,217.899994,,2013-02-28 17:11:00,
2013-02-28 10:21:00,24.0,18.0,-100.00,NNE,24,8.0,10.0,77,-99.99,,,-99.99,203.100006,,2013-02-28 17:21:00,
2013-02-28 10:31:00,25.0,19.0,-100.00,NNE,15,7.0,9.0,76,-99.99,,,-99.99,253.899994,,2013-02-28 17:31:00,
2013-02-28 10:41:00,25.0,18.0,-100.00,NNE,20,7.0,9.0,74,-99.99,,,-99.99,322.899994,,2013-02-28 17:41:00,
2013-02-28 10:52:00,26.0,19.0,-100.00,NNE,30,7.0,9.0,74,-99.99,,,-99.99,429.299988,,2013-02-28 17:52:00,
2013-02-28 11:01:00,27.0,19.0,-100.00,NNE,30,8.0,9.0,72,-99.99,,,-99.99,484.100006,,2013-02-28 18:01:00,
2013-02-28 11:11:00,28.0,19.0,-100.00,NNE,28,7.0,9.0,70,-99.99,,,-99.99,515.700012,,2013-02-28 18:11:00,
2013-02-28 11:21:00,28.0,20.0,-100.00,NNE,32,6.0,8.0,70,-99.99,,,-99.99,397.500000,,2013-02-28 18:21:00,
2013-02-28 11:31:00,28.0,19.0,-100.00,NE,55,6.0,9.0,68,-99.99,,,-99.99,508.000000,,2013-02-28 18:31:00,
2013-02-28 11:41:00,29.0,19.0,-100.00,NE,43,5.0,7.0,67,-99.99,,,-99.99,433.600006,,2013-02-28 18:41:00,
2013-02-28 11:51:00,29.0,20.0,-100.00,NE,51,5.0,7.0,67,-99.99,,,-99.99,455.600006,,2013-02-28 18:51:00,
2013-02-28 12:01:00,30.0,20.0,-100.00,NE,47,5.0,7.0,67,-99.99,,,-99.99,624.700012,,2013-02-28 19:01:00,
2013-02-28 12:11:00,30.0,19.0,-100.00,East,89,3.0,4.0,64,-99.99,,,-99.99,539.299988,,2013-02-28 19:11:00,
2013-02-28 12:21:00,30.0,19.0,-100.00,East,90,4.0,5.0,63,-99.99,,,-99.99,468.600006,,2013-02-28 19:21:00,
2013-02-28 12:31:00,30.0,19.0,-100.00,SE,126,2.0,4.0,62,-99.99,,,-99.99,525.400024,,2013-02-28 19:31:00,
2013-02-28 12:41:00,31.0,20.0,-100.00,East,95,4.0,5.0,62,-99.99,,,-99.99,628.799988,,2013-02-28 19:41:00,
2013-02-28 12:51:00,32.0,20.0,-100.00,East,95,4.0,6.0,62,-99.99,,,-99.99,473.399994,,2013-02-28 19:51:00,
2013-02-28 13:01:00,32.0,20.0,-100.00,East,99,4.0,6.0,60,-99.99,,,-99.99,612.299988,,2013-02-28 20:01:00,
2013-02-28 13:11:00,32.0,20.0,-100.00,East,91,4.0,5.0,61,-99.99,,,-99.99,691.200012,,2013-02-28 20:11:00,
2013-02-28 13:21:00,33.0,20.0,-100.00,East,101,4.0,6.0,60,-99.99,,,-99.99,629.000000,,2013-02-28 20:21:00,
2013-02-28 13:31:00,33.0,21.0,-100.00,East,86,4.0,7.0,61,-99.99,,,-99.99,652.200012,,2013-02-28 20:31:00,
2013-02-28 13:41:00,33.0,21.0,-100.00,NE,52,3.0,4.0,59,-99.99,,,-99.99,691.599976,,2013-02-28 20:41:00,
2013-02-28 13:52:00,34.0,21.0,-100.00,East,93,4.0,5.0,58,-99.99,,,-99.99,670.500000,,2013-02-28 20:52:00,
2013-02-28 14:01:00,34.0,22.0,-100.00,East,80,5.0,6.0,59,-99.99,,,-99.99,591.700012,,2013-02-28 21:01:00,
2013-02-28 14:11:00,35.0,22.0,-100.00,East,85,5.0,6.0,58,-99.99,,,-99.99,561.299988,,2013-02-28 21:11:00,
2013-02-28 14:22:00,35.0,23.0,-100.00,East,94,5.0,7.0,59,-99.99,,,-99.99,422.700012,,2013-02-28 21:22:00,
2013-02-28 14:31:00,36.0,22.0,-100.00,ENE,65,5.0,7.0,57,-99.99,,,-99.99,461.899994,,2013-02-28 21:31:00,
2013-02-28 14:41:00,36.0,22.0,-100.00,East,91,5.0,6.0,57,-99.99,,,-99.99,405.100006,,2013-02-28 21:41:00,
2013-02-28 14:51:00,36.0,23.0,-100.00,East,89,5.0,6.0,58,-99.99,,,-99.99,333.000000,,2013-02-28 21:51:00,
2013-02-28 15:01:00,36.0,22.0,-100.00,East,92,4.0,5.0,57,-99.99,,,-99.99,427.399994,,2013-02-28 22:01:00,
2013-02-28 15:11:00,36.0,23.0,-100.00,ENE,71,6.0,7.0,57,-99.99,,,-99.99,592.700012,,2013-02-28 22:11:00,
2013-02-28 15:21:00,36.0,23.0,-100.00,ENE,68,6.0,7.0,56,-99.99,,,-99.99,285.700012,,2013-02-28 22:21:00,
2013-02-28 15:31:00,37.0,24.0,-100.00,ENE,75,8.0,9.0,58,-99.99,,,-99.99,288.100006,,2013-02-28 22:31:00,
2013-02-28 15:41:00,37.0,23.0,-100.00,East,82,7.0,9.0,57,-99.99,,,-99.99,252.300003,,2013-02-28 22:41:00,
2013-02-28 15:52:00,37.0,24.0,-100.00,East,83,7.0,8.0,60,-99.99,,,-99.99,182.399994,,2013-02-28 22:52:00,
2013-02-28 16:01:00,36.0,25.0,-100.00,East,88,8.0,9.0,62,-99.99,,,-99.99,131.000000,,2013-02-28 23:01:00,
2013-02-28 16:11:00,36.0,25.0,-100.00,SE,131,11.0,13.0,62,-99.99,,,-99.99,105.500000,,2013-02-28 23:11:00,
2013-02-28 16:21:00,36.0,24.0,-100.00,SE,130,11.0,16.0,61,-99.99,,,-99.99,69.300003,,2013-02-28 23:21:00,
2013-02-28 16:31:00,36.0,24.0,-100.00,SE,134,12.0,14.0,63,-99.99,,,-99.99,83.699997,,2013-02-28 23:31:00,
2013-02-28 16:41:00,35.0,25.0,-100.00,SE,129,13.0,16.0,66,-99.99,,,-99.99,87.199997,,2013-02-28 23:41:00,
2013-02-28 16:52:00,34.0,25.0,-100.00,ESE,104,15.0,18.0,67,-99.99,,,-99.99,67.599998,,2013-02-28 23:52:00,
2013-02-28 17:01:00,33.0,24.0,-100.00,East,79,12.0,14.0,67,-99.99,,,-99.99,79.400002,,2013-03-01 00:01:00,
2013-02-28 17:11:00,33.0,24.0,-100.00,ENE,74,11.0,14.0,67,-99.99,,,-99.99,82.099998,,2013-03-01 00:11:00,
2013-02-28 17:22:00,34.0,24.0,-100.00,ENE,70,11.0,14.0,66,-99.99,,,-99.99,115.000000,,2013-03-01 00:22:00,
2013-02-28 17:32:00,34.0,24.0,-100.00,East,86,13.0,17.0,67,-99.99,,,-99.99,101.699997,,2013-03-01 00:32:00,
2013-02-28 17:41:00,34.0,24.0,-100.00,East,81,12.0,15.0,67,-99.99,,,-99.99,87.900002,,2013-03-01 00:41:00,
2013-02-28 17:51:00,34.0,24.0,-100.00,East,94,12.0,18.0,67,-99.99,,,-99.99,57.299999,,2013-03-01 00:51:00,
2013-02-28 18:01:00,33.0,24.0,-100.00,East,97,17.0,19.0,68,-99.99,,,-99.99,32.200001,,2013-03-01 01:01:00,
2013-02-28 18:11:00,33.0,24.0,-100.00,East,95,14.0,16.0,68,-99.99,,,-99.99,20.299999,,2013-03-01 01:11:00,
2013-02-28 18:21:00,33.0,24.0,-100.00,East,83,11.0,13.0,68,-99.99,,,-99.99,8.300000,,2013-03-01 01:21:00,
2013-02-28 18:31:00,33.0,25.0,-100.00,East,90,13.0,15.0,70,-99.99,,,-99.99,3.200000,,2013-03-01 01:31:00,
2013-02-28 18:41:00,33.0,25.0,-100.00,East,82,11.0,12.0,71,-99.99,,,-99.99,0.400000,,2013-03-01 01:41:00,
2013-02-28 18:51:00,33.0,25.0,-100.00,East,81,11.0,12.0,72,-99.99,,,-99.99,0.100000,,2013-03-01 01:51:00,
2013-02-28 19:01:00,33.0,26.0,-100.00,ESE,102,7.0,8.0,75,-99.99,,,-99.99,0.000000,,2013-03-01 02:01:00,
2013-02-28 19:11:00,33.0,26.0,-100.00,ESE,121,4.0,5.0,75,-99.99,,,-99.99,-0.100000,,2013-03-01 02:11:00,
2013-02-28 19:21:00,33.0,26.0,-100.00,SSE,148,5.0,7.0,76,-99.99,,,-99.99,-0.100000,,2013-03-01 02:21:00,
2013-02-28 19:31:00,33.0,26.0,-100.00,SSE,166,5.0,7.0,76,-99.99,,,-99.99,-0.100000,,2013-03-01 02:31:00,
2013-02-28 19:41:00,33.0,26.0,-100.00,SSW,199,3.0,6.0,75,-99.99,,,-99.99,-0.100000,,2013-03-01 02:41:00,
2013-02-28 19:52:00,33.0,26.0,-100.00,SE,129,7.0,9.0,75,-99.99,,,-99.99,-0.100000,,2013-03-01 02:52:00,
2013-02-28 20:01:00,32.0,26.0,-100.00,NNE,29,4.0,6.0,77,-99.99,,,-99.99,-0.100000,,2013-03-01 03:01:00,
2013-02-28 20:11:00,32.0,26.0,-100.00,ENE,60,6.0,7.0,78,-99.99,,,-99.99,0.000000,,2013-03-01 03:11:00,
2013-02-28 20:21:00,32.0,26.0,-100.00,ENE,57,8.0,10.0,78,-99.99,,,-99.99,0.000000,,2013-03-01 03:21:00,
2013-02-28 20:32:00,31.0,26.0,-100.00,ENE,58,10.0,12.0,80,-99.99,,,-99.99,-0.100000,,2013-03-01 03:32:00,
2013-02-28 20:41:00,31.0,27.0,-100.00,NE,47,8.0,10.0,81,-99.99,,,-99.99,-0.100000,,2013-03-01 03:41:00,
2013-02-28 20:51:00,32.0,27.0,-100.00,ENE,67,6.0,6.0,82,-99.99,,,-99.99,-0.100000,,2013-03-01 03:51:00,
2013-02-28 21:01:00,32.0,28.0,-100.00,East,84,3.0,4.0,84,-99.99,,,-99.99,-0.100000,,2013-03-01 04:01:00,
2013-02-28 21:11:00,32.0,28.0,-100.00,ESE,122,5.0,6.0,84,-99.99,,,-99.99,-0.100000,,2013-03-01 04:11:00,
2013-02-28 21:21:00,32.0,28.0,-100.00,SSE,148,6.0,6.0,84,-99.99,,,-99.99,0.000000,,2013-03-01 04:21:00,
2013-02-28 21:31:00,32.0,28.0,-100.00,SSE,155,6.0,7.0,85,-99.99,,,-99.99,0.000000,,2013-03-01 04:31:00,
2013-02-28 21:41:00,32.0,28.0,-100.00,SSE,168,7.0,8.0,86,-99.99,,,-99.99,-0.100000,,2013-03-01 04:41:00,
2013-02-28 21:51:00,32.0,28.0,-100.00,South,180,6.0,6.0,87,-99.99,,,-99.99,-0.100000,,2013-03-01 04:51:00,
2013-02-28 22:01:00,31.0,28.0,-100.00,SSE,166,4.0,5.0,89,-99.99,,,-99.99,-0.100000,,2013-03-01 05:01:00,
2013-02-28 22:11:00,31.0,29.0,-100.00,SSE,158,3.0,4.0,90,-99.99,,,-99.99,0.000000,,2013-03-01 05:11:00,
2013-02-28 22:22:00,31.0,28.0,-100.00,SE,133,4.0,5.0,91,-99.99,,,-99.99,-0.100000,,2013-03-01 05:22:00,
2013-02-28 22:32:00,30.0,28.0,-100.00,SSE,159,3.0,4.0,92,-99.99,,,-99.99,-0.100000,,2013-03-01 05:32:00,
2013-02-28 22:41:00,31.0,29.0,-100.00,SE,146,2.0,3.0,92,-99.99,,,-99.99,-0.100000,,2013-03-01 05:41:00,
2013-02-28 22:52:00,31.0,29.0,-100.00,SSE,154,2.0,3.0,92,-99.99,,,-99.99,0.000000,,2013-03-01 05:52:00,
2013-02-28 23:01:00,31.0,29.0,-100.00,South,170,2.0,3.0,93,-99.99,,,-99.99,0.000000,,2013-03-01 06:01:00,
2013-02-28 23:11:00,31.0,29.0,-100.00,SSW,200,2.0,3.0,93,-99.99,,,-99.99,-0.100000,,2013-03-01 06:11:00,
2013-02-28 23:21:00,31.0,29.0,-100.00,East,90,3.0,4.0,93,-99.99,,,-99.99,-0.100000,,2013-03-01 06:21:00,
2013-02-28 23:31:00,31.0,29.0,-100.00,ESE,115,2.0,3.0,93,-99.99,,,-99.99,-0.100000,,2013-03-01 06:31:00,
2013-02-28 23:41:00,31.0,29.0,-100.00,NE,52,1.0,2.0,94,-99.99,,,-99.99,-0.100000,,2013-03-01 06:41:00,
2013-02-28 23:52:00,30.0,29.0,-100.00,NNW,342,4.0,5.0,93,-99.99,,,-99.99,-0.100000,,2013-03-01 06:52:00,